Flight Track Log - Related Links

Times and Time Zones

All times are in EDT time to prevent confusion due to time zone crossing. See the THY1078 flight status page for this flight to view local times or setup timezone preferences in your user account.

Time Position Orientation Groundspeed Altitude Reporting Facility
EDT Latitude Longitude Course Direction KTS MPH feet Rate Location/Type
Mon 02:54:00 PM 41.3800 21.7353 91° East  Level Estimated
Mon 02:55:00 PM 41.3764 21.8695 92° East  Level Estimated
Mon 02:56:00 PM 41.3727 22.0037 92° East  Level Estimated
Mon 02:57:00 PM 41.3689 22.1379 92° East  Level Estimated
Mon 02:58:00 PM 41.3648 22.2721 92° East  Level Estimated
Mon 02:59:00 PM 41.3606 22.4062 92° East  Level Estimated
Mon 03:00:00 PM 41.3563 22.5404 92° East  Level Estimated
Mon 03:01:00 PM 41.3518 22.6745 93° East  Level Estimated
Mon 03:02:00 PM 41.3471 22.8086 93° East  Level Estimated
Mon 03:03:00 PM 41.3423 22.9427 93° East  Level Estimated
Mon 03:04:00 PM 41.3373 23.0787 93° East  Level Estimated
Mon 03:05:00 PM 41.3321 23.2148 93° East  Level Estimated
Mon 03:06:00 PM 41.3267 23.3508 93° East  Level Estimated
Mon 03:07:00 PM 41.3212 23.4868 93° East  Level Estimated
Mon 03:08:00 PM 41.3155 23.6228 93° East  Level Estimated
Mon 03:09:00 PM 41.3097 23.7587 93° East  Level Estimated
Mon 03:10:00 PM 41.3037 23.8946 93° East  Level Estimated
Mon 03:11:00 PM 41.2975 24.0306 93° East  Level Estimated
Mon 03:12:00 PM 41.2912 24.1664 93° East  Level Estimated
Mon 03:13:00 PM 41.2847 24.3023 94° East  Level Estimated
Mon 03:14:00 PM 41.2781 24.4381 94° East  Level Estimated
Mon 03:15:00 PM 41.2713 24.5739 94° East  Level Estimated
Mon 03:16:00 PM 41.2643 24.7097 94° East  Level Estimated
Mon 03:17:00 PM 41.2572 24.8454 94° East  Level Estimated
Mon 03:18:00 PM 41.2499 24.9811 94° East  Level Estimated
Mon 03:19:00 PM 41.2425 25.1168 94° East  Level Estimated
Mon 03:20:00 PM 41.2349 25.2524 94° East  Level Estimated
Mon 03:21:00 PM 41.2271 25.3880 94° East  Level Estimated
Mon 03:22:00 PM 41.2192 25.5236 94° East  Level Estimated
Mon 03:23:00 PM 41.2111 25.6591 94° East  Level Estimated
Mon 03:24:00 PM 41.2029 25.7947 95° East  Level Estimated
Mon 03:25:00 PM 41.1945 25.9301 95° East  Level Estimated
Mon 03:26:00 PM 41.1860 26.0656 95° East  Level Estimated
Mon 03:27:00 PM 41.1772 26.2010 95° East  Level Estimated
Mon 03:28:00 PM 41.1684 26.3364 95° East  Level Estimated
Mon 03:29:00 PM 41.1593 26.4717 95° East  Level Estimated
Mon 03:30:00 PM 41.1502 26.6070 95° East  Level Estimated
Mon 03:31:00 PM 41.1408 26.7423 95° East  Level Estimated
Mon 03:32:00 PM 41.1313 26.8775 95° East  Level Estimated
Mon 03:33:00 PM 41.1217 27.0126 95° East  Level Estimated
Mon 03:34:00 PM 41.1118 27.1478 95° East  Level Estimated
Mon 03:35:00 PM 41.1018 27.2829 96° East  Level Estimated
Mon 03:36:00 PM 41.0917 27.4179 96° East  Level Estimated
Mon 03:37:00 PM 41.0814 27.5530 96° East  Level Estimated
Mon 03:38:00 PM 41.0710 27.6879 96° East  Level Estimated
Mon 03:39:00 PM 41.0604 27.8229 96° East  Level Estimated
Mon 03:40:00 PM 41.0496 27.9578 96° East  Level Estimated
Mon 03:41:00 PM 41.0387 28.0926 96° East  Level Estimated
Mon 03:42:00 PM 41.0276 28.2274 96° East  Level Estimated
Mon 03:43:00 PM 41.0164 28.3622 96° East  Level Estimated
Mon 03:44:00 PM 41.0050 28.4968 96° East  Level Estimated
Mon 03:45:00 PM 40.9934 28.6315 96° East  Level Estimated
Mon 03:46:00 PM 40.9817 28.7661 97° East  Level Estimated
Mon 03:47:00 PM 40.9769 28.8211 97° East  Level Estimated
Mon 03:48:00 PM 40.9769 28.8211 21° North  Level Estimated
Mon 03:49:00 PM 40.9769 28.8211 21° North  Level Estimated
Mon 03:50:00 PM 40.9769 28.8211 21° North  Level Estimated
Mon 03:51:00 PM 40.9769 28.8211 21° North  Level Estimated
Mon 03:52:00 PM 40.9769 28.8211 21° North  Level Estimated
Mon 03:53:00 PM 40.9769 28.8211 21° North  Level Estimated
Mon 03:54:00 PM 40.9769 28.8211 21° North  Level Estimated
Mon 03:55:00 PM 40.9769 28.8211 21° North  Level Estimated
Mon 03:56:00 PM 40.9769 28.8211 21° North  Level Estimated
Mon 03:57:00 PM 40.9769 28.8211 21° North  Level Estimated
Mon 03:58:00 PM 40.9769 28.8211 21° North  Level Estimated
Mon 03:59:00 PM 40.9769 28.8211 21° North  Level Estimated
Mon 04:00:00 PM 40.9769 28.8211 21° North  Level Estimated
Mon 04:01:00 PM 40.9769 28.8211 21° North  Level Estimated
Mon 04:02:00 PM 40.9769 28.8211 21° North  Level Estimated

Login

Don't have an account? Register now (free) for customized features, flight alerts, and more!